createdAt,value
2022-11-09T00:03:48.237Z,2.70
2022-11-09T00:07:50.235Z,3.25
2022-11-09T00:11:53.565Z,3.10
2022-11-09T00:15:58.838Z,3.13
2022-11-09T00:20:00.442Z,3.88
2022-11-09T00:24:02.002Z,4.25
2022-11-09T00:28:04.577Z,3.80
2022-11-09T00:32:06.486Z,3.53
2022-11-09T00:36:11.217Z,3.13
2022-11-09T00:40:13.252Z,3.30
2022-11-09T00:44:14.848Z,2.90
2022-11-09T00:48:16.418Z,3.35
2022-11-09T00:52:18.369Z,3.22
2022-11-09T00:56:20.333Z,3.42
2022-11-09T01:00:23.662Z,2.80
2022-11-09T01:04:25.171Z,3.25
2022-11-09T01:08:26.670Z,2.90
2022-11-09T01:12:28.187Z,3.33
2022-11-09T01:16:30.141Z,3.22
2022-11-09T01:20:32.997Z,2.70
2022-11-09T01:24:34.432Z,3.17
2022-11-09T01:28:36.679Z,2.60
2022-11-09T01:32:38.333Z,2.80
2022-11-09T01:36:39.749Z,3.15
2022-11-09T01:40:41.937Z,2.58
2022-11-09T01:44:43.487Z,2.75
2022-11-09T01:48:55.007Z,2.60
2022-11-09T01:52:56.617Z,2.70
2022-11-09T01:57:01.629Z,2.42
2022-11-09T02:01:03.911Z,2.75
2022-11-09T02:05:10.632Z,2.60
2022-11-09T02:09:46.964Z,2.10
2022-11-09T02:14:03.148Z,2.45
2022-11-09T02:18:06.039Z,2.00
2022-11-09T02:22:07.848Z,2.08
2022-11-09T02:26:17.020Z,1.88
2022-11-09T02:30:19.254Z,1.83
2022-11-09T02:34:21.930Z,2.05
2022-11-09T02:38:23.455Z,2.28
2022-11-09T02:42:25.433Z,1.55
2022-11-09T02:46:34.794Z,1.80
2022-11-09T02:50:37.253Z,2.13
2022-11-09T02:54:39.200Z,2.33
2022-11-09T02:58:40.756Z,2.42
2022-11-09T03:02:42.484Z,2.17
2022-11-09T03:06:44.401Z,3.22
2022-11-09T03:10:46.375Z,1.60
2022-11-09T03:14:48.176Z,1.92
2022-11-09T03:18:51.625Z,2.88
2022-11-09T03:22:58.388Z,2.33
2022-11-09T03:26:59.998Z,3.10
2022-11-09T03:35:39.690Z,3.95
2022-11-09T03:39:41.414Z,3.45
2022-11-09T03:43:43.161Z,3.85
2022-11-09T03:53:18.864Z,3.67
2022-11-09T03:58:19.827Z,4.07
2022-11-09T04:02:21.459Z,3.70
2022-11-09T04:06:23.470Z,3.22
2022-11-09T04:10:26.206Z,2.67
2022-11-09T04:14:27.872Z,2.85
2022-11-09T04:18:29.305Z,3.60
2022-11-09T04:22:31.230Z,4.68
2022-11-09T04:26:34.612Z,4.72
2022-11-09T04:30:37.005Z,3.53
2022-11-09T04:34:38.709Z,3.53
2022-11-09T04:38:40.107Z,3.30
2022-11-09T04:42:42.128Z,3.75
2022-11-09T04:46:44.344Z,3.50
2022-11-09T04:50:45.829Z,3.75
2022-11-09T04:54:47.314Z,4.03
2022-11-09T04:58:49.383Z,4.03
2022-11-09T05:02:50.981Z,3.80
2022-11-09T05:06:52.866Z,4.32
2022-11-09T05:10:58.081Z,3.90
2022-11-09T05:15:01.963Z,3.63
2022-11-09T05:19:03.880Z,3.42
2022-11-09T05:23:24.399Z,3.42
2022-11-09T05:27:26.004Z,2.92
2022-11-09T05:31:29.240Z,4.28
2022-11-09T05:35:30.949Z,3.30
2022-11-09T05:39:32.566Z,4.00
2022-11-09T05:43:33.996Z,3.70
2022-11-09T05:47:39.439Z,3.65
2022-11-09T05:51:40.928Z,4.05
2022-11-09T05:55:42.670Z,3.95
2022-11-09T05:59:44.244Z,3.47
2022-11-09T06:03:46.150Z,3.25
2022-11-09T06:07:47.612Z,3.67
2022-11-09T06:11:51.983Z,3.47
2022-11-09T06:15:55.384Z,3.65
2022-11-09T06:19:56.933Z,3.53
2022-11-09T06:23:58.533Z,4.53
2022-11-09T06:28:00.677Z,3.67
2022-11-09T06:32:02.155Z,3.90
2022-11-09T06:36:04.806Z,4.32
2022-11-09T06:40:06.905Z,3.95
2022-11-09T06:44:08.445Z,3.53
2022-11-09T06:48:10.507Z,3.50
2022-11-09T06:52:12.128Z,3.58
2022-11-09T06:56:13.648Z,3.85
2022-11-09T07:00:16.712Z,3.00
2022-11-09T07:04:20.171Z,3.28
2022-11-09T07:08:21.780Z,3.70
2022-11-09T07:12:23.360Z,4.65
2022-11-09T07:16:24.831Z,3.78
2022-11-09T07:20:26.675Z,3.53
2022-11-09T07:24:28.903Z,3.25
2022-11-09T07:28:31.382Z,4.40
2022-11-09T07:36:56.304Z,6.30
2022-11-09T07:41:01.698Z,5.47
2022-11-09T07:45:03.640Z,4.40
2022-11-09T07:49:05.207Z,5.05
2022-11-09T07:53:07.475Z,5.40
2022-11-09T07:57:09.357Z,4.45
2022-11-09T08:01:11.893Z,4.47
2022-11-09T08:05:14.251Z,4.20
2022-11-09T08:09:15.769Z,4.22
2022-11-09T08:13:17.898Z,3.92
2022-11-09T08:17:19.613Z,3.70
2022-11-09T08:21:21.068Z,4.00
2022-11-09T08:25:22.581Z,3.40
2022-11-09T08:29:25.104Z,3.25
2022-11-09T08:33:28.189Z,3.22
2022-11-09T08:37:29.561Z,3.13
2022-11-09T08:41:31.051Z,3.83
2022-11-09T08:45:34.463Z,3.30
2022-11-09T08:49:35.864Z,2.72
2022-11-09T08:53:38.021Z,2.30
2022-11-09T08:57:39.657Z,2.10
2022-11-09T09:01:41.274Z,1.73
2022-11-09T09:05:42.877Z,2.00
2022-11-09T09:09:44.412Z,2.28
2022-11-09T09:13:45.873Z,1.80
2022-11-09T09:17:47.883Z,2.00
2022-11-09T09:21:49.439Z,1.85
2022-11-09T09:25:53.191Z,1.75
2022-11-09T09:29:57.223Z,1.70
2022-11-09T09:33:58.740Z,1.05
2022-11-09T09:38:00.212Z,1.35
2022-11-09T09:42:05.891Z,1.35
2022-11-09T09:46:17.024Z,1.70
2022-11-09T09:50:22.568Z,1.40
2022-11-09T09:54:28.853Z,1.30
2022-11-09T09:58:33.564Z,1.92
2022-11-09T10:02:36.397Z,1.50
2022-11-09T10:06:49.843Z,1.23
2022-11-09T10:11:05.187Z,1.33
2022-11-09T10:15:14.341Z,1.48
2022-11-09T10:19:55.574Z,1.58
2022-11-09T10:24:17.268Z,1.98
2022-11-09T10:28:19.485Z,1.85
2022-11-09T10:32:23.567Z,1.75
2022-11-09T10:36:33.172Z,1.77
2022-11-09T10:40:42.658Z,1.90
2022-11-09T10:44:44.082Z,2.15
2022-11-09T10:48:45.678Z,2.00
2022-11-09T10:52:47.894Z,1.92
2022-11-09T10:57:06.128Z,2.10
2022-11-09T11:01:17.148Z,1.80
2022-11-09T11:05:18.695Z,2.30
2022-11-09T11:09:21.205Z,1.92
2022-11-09T11:13:24.455Z,1.52
2022-11-09T11:17:29.480Z,1.80
2022-11-09T11:21:31.958Z,2.05
2022-11-09T11:25:33.416Z,2.55
2022-11-09T11:29:43.754Z,2.25
2022-11-09T11:33:46.124Z,1.90
2022-11-09T11:38:19.036Z,1.83
2022-11-09T11:42:43.266Z,1.75
2022-11-09T11:46:47.440Z,1.98
2022-11-09T11:50:51.117Z,2.20
2022-11-09T11:54:58.290Z,1.67
2022-11-09T11:59:31.990Z,1.67
2022-11-09T12:03:53.933Z,1.70
2022-11-09T12:08:36.057Z,1.67
2022-11-09T12:12:40.389Z,1.48
2022-11-09T12:17:23.529Z,2.10
2022-11-09T12:21:37.465Z,1.77
2022-11-09T12:26:00.694Z,1.75
2022-11-09T12:30:06.753Z,1.67
2022-11-09T12:34:28.664Z,1.27
2022-11-09T12:38:37.169Z,1.40
2022-11-09T12:43:20.266Z,1.80
2022-11-09T12:47:32.852Z,1.63
2022-11-09T12:51:34.769Z,1.63
2022-11-09T12:55:47.508Z,1.60
2022-11-09T12:59:51.389Z,2.05
2022-11-09T13:03:57.392Z,1.50
2022-11-09T13:08:06.010Z,1.42
2022-11-09T13:12:32.971Z,1.77
2022-11-09T13:16:36.214Z,1.45
2022-11-09T13:20:56.879Z,1.77
2022-11-09T13:25:22.878Z,1.40
2022-11-09T13:29:26.996Z,1.48
2022-11-09T13:33:32.424Z,1.30
2022-11-09T13:37:45.301Z,1.42
2022-11-09T13:41:47.003Z,1.25
2022-11-09T13:45:59.646Z,1.40
2022-11-09T13:50:01.627Z,1.30
2022-11-09T13:54:34.472Z,1.35
2022-11-09T13:58:41.411Z,1.45
2022-11-09T14:02:53.008Z,1.57
2022-11-09T14:07:20.470Z,1.35
2022-11-09T14:11:37.607Z,1.33
2022-11-09T14:15:50.009Z,1.40
2022-11-09T14:19:59.650Z,1.48
2022-11-09T14:24:03.332Z,1.77
2022-11-09T14:28:20.665Z,1.55
2022-11-09T14:36:26.586Z,2.33
2022-11-09T14:40:30.197Z,2.72
2022-11-09T14:44:40.572Z,1.92
2022-11-09T14:48:53.501Z,2.13
2022-11-09T14:52:55.899Z,1.80
2022-11-09T14:56:57.390Z,2.08
2022-11-09T15:01:20.037Z,2.60
2022-11-09T15:05:39.317Z,2.20
2022-11-09T15:09:48.190Z,2.25
2022-11-09T15:13:49.621Z,2.35
2022-11-09T15:17:51.432Z,2.42
2022-11-09T15:21:53.081Z,2.72
2022-11-09T15:25:56.165Z,2.75
2022-11-09T15:29:57.724Z,2.90
2022-11-09T15:33:59.738Z,3.00
2022-11-09T15:38:01.445Z,2.40
2022-11-09T15:42:03.076Z,2.63
2022-11-09T15:46:05.873Z,2.30
2022-11-09T15:50:15.809Z,2.15
2022-11-09T15:54:18.081Z,2.08
2022-11-09T15:58:20.097Z,1.73
2022-11-09T16:02:21.843Z,2.55
2022-11-09T16:06:23.671Z,3.53
2022-11-09T16:10:27.267Z,3.60
2022-11-09T16:14:32.537Z,4.50
2022-11-09T16:18:34.490Z,3.03
2022-11-09T16:22:36.036Z,3.40
2022-11-09T16:26:37.629Z,3.00
2022-11-09T16:30:44.061Z,2.40
2022-11-09T16:35:02.638Z,2.80
2022-11-09T16:39:12.881Z,2.35
2022-11-09T16:43:14.673Z,2.55
2022-11-09T16:47:17.717Z,2.70
2022-11-09T16:51:19.592Z,2.40
2022-11-09T16:55:21.223Z,2.40
2022-11-09T16:59:23.418Z,2.53
2022-11-09T17:03:24.849Z,2.20
2022-11-09T17:07:26.386Z,2.30
2022-11-09T17:11:28.046Z,2.60
2022-11-09T17:15:29.507Z,2.15
2022-11-09T17:19:35.662Z,2.42
2022-11-09T17:23:37.792Z,1.98
2022-11-09T17:27:39.287Z,2.38
2022-11-09T17:31:41.214Z,2.05
2022-11-09T17:35:42.743Z,2.40
2022-11-09T17:39:44.375Z,2.60
2022-11-09T17:43:46.519Z,2.50
2022-11-09T17:47:48.041Z,3.40
2022-11-09T17:51:49.509Z,2.75
2022-11-09T17:55:51.511Z,2.60
2022-11-09T17:59:52.901Z,2.45
2022-11-09T18:03:54.465Z,3.00
2022-11-09T18:07:55.855Z,2.85
2022-11-09T18:11:57.259Z,3.33
2022-11-09T18:15:58.763Z,3.03
2022-11-09T18:20:00.213Z,2.90
2022-11-09T18:24:01.732Z,2.95
2022-11-09T18:28:03.509Z,2.75
2022-11-09T18:32:05.284Z,2.33
2022-11-09T18:36:09.299Z,2.60
2022-11-09T18:40:11.414Z,2.00
2022-11-09T18:44:12.851Z,2.03
2022-11-09T18:48:14.581Z,2.55
2022-11-09T18:52:16.325Z,2.40
2022-11-09T18:56:24.589Z,2.63
2022-11-09T19:00:26.098Z,2.83
2022-11-09T19:04:27.693Z,3.03
2022-11-09T19:08:47.614Z,2.15
2022-11-09T19:12:49.092Z,2.40
2022-11-09T19:16:51.312Z,1.95
2022-11-09T19:20:52.845Z,2.20
2022-11-09T19:24:54.364Z,2.15
2022-11-09T19:28:56.332Z,2.60
2022-11-09T19:32:58.155Z,2.30
2022-11-09T19:37:00.185Z,1.92
2022-11-09T19:41:02.116Z,2.17
2022-11-09T19:45:04.103Z,1.92
2022-11-09T19:49:07.333Z,2.10
2022-11-09T19:53:08.952Z,1.80
2022-11-09T19:57:11.961Z,2.33
2022-11-09T20:01:14.033Z,2.13
2022-11-09T20:05:17.232Z,2.00
2022-11-09T20:09:19.100Z,3.47
2022-11-09T20:13:22.147Z,2.28
2022-11-09T20:17:23.722Z,2.33
2022-11-09T20:21:25.420Z,2.10
2022-11-09T20:25:26.884Z,2.10
2022-11-09T20:29:28.722Z,1.70
2022-11-09T20:33:30.201Z,1.58
2022-11-09T20:37:31.848Z,1.33
2022-11-09T20:41:33.775Z,1.70
2022-11-09T20:45:36.253Z,2.08
2022-11-09T20:49:37.640Z,1.70
2022-11-09T20:53:39.673Z,1.80
2022-11-09T20:57:41.135Z,1.50
2022-11-09T21:01:42.609Z,1.70
2022-11-09T21:05:47.879Z,2.22
2022-11-09T21:09:52.708Z,2.30
2022-11-09T21:13:54.776Z,2.35
2022-11-09T21:17:56.178Z,1.70
2022-11-09T21:21:57.752Z,1.90
2022-11-09T21:26:19.009Z,2.40
2022-11-09T21:30:20.678Z,2.15
2022-11-09T21:34:22.672Z,1.75
2022-11-09T21:38:24.410Z,1.85
2022-11-09T21:42:25.941Z,1.73
2022-11-09T21:46:27.893Z,1.52
2022-11-09T21:50:29.313Z,1.38
2022-11-09T21:54:30.939Z,1.40
2022-11-09T21:58:33.329Z,1.48
2022-11-09T22:02:35.937Z,1.67
2022-11-09T22:06:39.527Z,1.58
2022-11-09T22:10:41.255Z,1.40
2022-11-09T22:15:01.646Z,1.58
2022-11-09T22:19:21.633Z,1.35
2022-11-09T22:23:23.511Z,1.20
2022-11-09T22:27:25.389Z,1.23
2022-11-09T22:31:27.565Z,1.50
2022-11-09T22:35:29.190Z,1.27
2022-11-09T22:39:30.781Z,1.92
2022-11-09T22:43:33.724Z,1.65
2022-11-09T22:47:35.378Z,1.35
2022-11-09T22:51:36.863Z,1.00
2022-11-09T22:55:38.247Z,1.35
2022-11-09T22:59:39.728Z,0.93
2022-11-09T23:03:42.143Z,0.93
2022-11-09T23:07:43.558Z,1.00
2022-11-09T23:11:45.181Z,1.50
2022-11-09T23:16:00.517Z,1.45
2022-11-09T23:20:01.985Z,0.90
2022-11-09T23:24:05.817Z,1.42
2022-11-09T23:28:07.417Z,0.82
2022-11-09T23:32:09.117Z,1.23
2022-11-09T23:36:10.816Z,1.15
2022-11-09T23:40:12.695Z,1.15
2022-11-09T23:44:14.297Z,1.05
2022-11-09T23:48:18.378Z,1.15
2022-11-09T23:52:19.965Z,0.95
2022-11-09T23:56:21.751Z,0.70
